Suttons Bay, MI (49682)

2:29 AM EDT on August 29, 2015 (GMT -0400)
South Shore Drive | | Change Station
CLOSE
Current Station
Personal Weather Station
Location: Suttons Bay, MI
Elevation: 597 ft
Nearby Weather Stations

Elev 597 ft 44.97 °N, 85.64 °W | Updated 2 seconds ago

Overcast
Overcast
63.8 °F
Feels Like 63.8 °F
N
0.0
Wind Variable Wind from ESE
Gusts 2.0 mph

Today
High -- | Low -- °F
--% Chance of Precip.
Yesterday
High -- | Low -- °F
Precip. -- in
7:00 AM 8:25 PM
Full, 100% visible
Pressure 30.10 in
Visibility 9.0 miles
Clouds Mostly Cloudy 2300 ft
Overcast 10000 ft
Dew Point 62 °F
Humidity 95%
Rainfall 0.02 in
Snow Depth Not available.
UV 0 out of 12
Pollen 10.10 out of 12
Air Quality Not available.
Flu Activity Not available.
SPECI KTVC 290617Z VRB04KT 9SM -RA BKN023 OVC100 18/16 A3010 RMK AO2 RAB12 P0000 T01780156
Pressure 30.10 in
Visibility 9.0 miles
Clouds Mostly Cloudy 2300 ft
Overcast 10000 ft
Dew Point 62 °F
Humidity 95%
Rainfall 0.02 in
Snow Depth Not available.
UV 0 out of 12
Pollen 10.10 out of 12
Air Quality Not available.
Flu Activity Not available.
SPECI KTVC 290617Z VRB04KT 9SM -RA BKN023 OVC100 18/16 A3010 RMK AO2 RAB12 P0000 T01780156
Nowcast | as of 2:00 am EDT on August 29, 2015

At 3 am...rain. Temperature 65. Southwest winds 13 mph. At 5 am...rain. Temperature 64. Southwest winds 11 mph. At 7 am...rain. Temperature 63. South winds 8 mph. At 9 am...numerous showers. Temperature 63. South winds 8 mph.

×

10-Day Weather Forecast

×

Almanac

Astronomy

Aug. 29, 2015 Rise Set
Actual Time
Civil Twilight
Nautical Twilight
Astronomical Twilight
Moon
Length of Visible Light
Length of Day
Tomorrow will be .
, % of the Moon is Illuminated

Today's Extremes

State Highs State Lows

Community

WunderPhotos

Upload Photos

1,850,622 photos uploaded!

WunderBlogs® & News

Nearby

Air Quality

  Air Quality AQ Index Pollutant
Not available.

Snow Depth

Station Depth Elevation

Earthquake Activity

City Distance Mag. Time & Date
Minimum magnitude displayed is 2.5.

Coastal Water Temperatures

Place Temperature

Stations

Nearby Weather Stations

Station Location Temp. Windchill Dew Point Humidity Wind Precip. Elev Updated Type